sensor_id;sensor_type;location;lat;lon;timestamp;pressure;altitude;pressure_sealevel;temperature;humidity
75536;BME280;64119;52.070;20.804;2024-03-23T00:53:42;99633.79;;;8.62;94.90
75536;BME280;64119;52.070;20.804;2024-03-23T00:56:10;99632.13;;;8.62;95.54
75536;BME280;64119;52.070;20.804;2024-03-23T00:58:38;99625.33;;;8.61;94.92
75536;BME280;64119;52.070;20.804;2024-03-23T01:01:05;99624.51;;;8.61;95.68
75536;BME280;64119;52.070;20.804;2024-03-23T01:03:33;99614.56;;;8.58;95.96
75536;BME280;64119;52.070;20.804;2024-03-23T01:06:01;99614.69;;;8.59;96.48
75536;BME280;64119;52.070;20.804;2024-03-23T01:08:28;99609.35;;;8.58;97.09
75536;BME280;64119;52.070;20.804;2024-03-23T01:10:57;99611.34;;;8.56;97.03
75536;BME280;64119;52.070;20.804;2024-03-23T01:13:26;99614.29;;;8.54;97.14
75536;BME280;64119;52.070;20.804;2024-03-23T01:15:55;99605.50;;;8.52;97.83
75536;BME280;64119;52.070;20.804;2024-03-23T01:18:23;99601.48;;;8.52;97.27
75536;BME280;64119;52.070;20.804;2024-03-23T01:20:53;99599.08;;;8.53;97.72
75536;BME280;64119;52.070;20.804;2024-03-23T01:23:21;99599.66;;;8.51;98.01
75536;BME280;64119;52.070;20.804;2024-03-23T01:25:53;99597.80;;;8.49;98.29
75536;BME280;64119;52.070;20.804;2024-03-23T01:28:21;99593.98;;;8.50;98.13
75536;BME280;64119;52.070;20.804;2024-03-23T01:30:49;99596.34;;;8.50;98.77
75536;BME280;64119;52.070;20.804;2024-03-23T01:33:17;99592.80;;;8.50;98.68
75536;BME280;64119;52.070;20.804;2024-03-23T01:35:45;99596.83;;;8.50;98.88
75536;BME280;64119;52.070;20.804;2024-03-23T01:38:12;99596.45;;;8.49;98.92
75536;BME280;64119;52.070;20.804;2024-03-23T01:40:39;99593.59;;;8.47;98.69
75536;BME280;64119;52.070;20.804;2024-03-23T01:43:08;99594.65;;;8.48;99.68
75536;BME280;64119;52.070;20.804;2024-03-23T01:45:36;99594.55;;;8.47;98.97
75536;BME280;64119;52.070;20.804;2024-03-23T01:48:04;99585.42;;;8.48;99.59
75536;BME280;64119;52.070;20.804;2024-03-23T01:50:32;99585.02;;;8.49;99.71
75536;BME280;64119;52.070;20.804;2024-03-23T01:53:04;99582.98;;;8.48;99.75
75536;BME280;64119;52.070;20.804;2024-03-23T01:55:33;99582.41;;;8.48;99.48
75536;BME280;64119;52.070;20.804;2024-03-23T01:58:06;99586.63;;;8.48;99.71
75536;BME280;64119;52.070;20.804;2024-03-23T02:00:34;99585.91;;;8.48;99.76
75536;BME280;64119;52.070;20.804;2024-03-23T02:03:22;99582.13;;;8.49;99.34
75536;BME280;64119;52.070;20.804;2024-03-23T02:05:50;99573.64;;;8.51;99.81
75536;BME280;64119;52.070;20.804;2024-03-23T02:08:21;99570.48;;;8.51;99.74
75536;BME280;64119;52.070;20.804;2024-03-23T02:10:49;99567.63;;;8.52;99.98
75536;BME280;64119;52.070;20.804;2024-03-23T02:13:18;99566.33;;;8.53;100.00
75536;BME280;64119;52.070;20.804;2024-03-23T02:15:46;99568.81;;;8.53;99.81
75536;BME280;64119;52.070;20.804;2024-03-23T02:18:15;99569.48;;;8.54;99.91
75536;BME280;64119;52.070;20.804;2024-03-23T02:20:42;99568.40;;;8.55;99.97
75536;BME280;64119;52.070;20.804;2024-03-23T02:23:16;99566.77;;;8.55;100.00
75536;BME280;64119;52.070;20.804;2024-03-23T02:25:45;99566.41;;;8.56;100.00
75536;BME280;64119;52.070;20.804;2024-03-23T02:28:13;99564.25;;;8.56;99.97
75536;BME280;64119;52.070;20.804;2024-03-23T02:30:40;99563.27;;;8.56;100.00
75536;BME280;64119;52.070;20.804;2024-03-23T02:33:08;99565.75;;;8.57;99.97
75536;BME280;64119;52.070;20.804;2024-03-23T02:35:36;99556.23;;;8.57;100.00
75536;BME280;64119;52.070;20.804;2024-03-23T02:38:03;99553.61;;;8.59;100.00
75536;BME280;64119;52.070;20.804;2024-03-23T02:40:31;99550.55;;;8.60;100.00
75536;BME280;64119;52.070;20.804;2024-03-23T02:42:59;99552.23;;;8.61;100.00
75536;BME280;64119;52.070;20.804;2024-03-23T02:45:26;99555.60;;;8.61;100.00
75536;BME280;64119;52.070;20.804;2024-03-23T02:47:54;99551.81;;;8.60;100.00
75536;BME280;64119;52.070;20.804;2024-03-23T02:50:21;99549.50;;;8.60;100.00
75536;BME280;64119;52.070;20.804;2024-03-23T02:52:49;99547.55;;;8.60;100.00
75536;BME280;64119;52.070;20.804;2024-03-23T02:55:16;99539.95;;;8.62;100.00
75536;BME280;64119;52.070;20.804;2024-03-23T02:57:44;99535.41;;;8.62;100.00
75536;BME280;64119;52.070;20.804;2024-03-23T03:00:12;99530.39;;;8.61;100.00
75536;BME280;64119;52.070;20.804;2024-03-23T03:02:40;99527.67;;;8.61;100.00
75536;BME280;64119;52.070;20.804;2024-03-23T03:05:08;99524.55;;;8.62;100.00
75536;BME280;64119;52.070;20.804;2024-03-23T03:07:36;99525.64;;;8.62;100.00
75536;BME280;64119;52.070;20.804;2024-03-23T03:10:06;99521.16;;;8.63;100.00
75536;BME280;64119;52.070;20.804;2024-03-23T03:12:35;99522.02;;;8.63;100.00
75536;BME280;64119;52.070;20.804;2024-03-23T03:15:04;99518.77;;;8.62;100.00
75536;BME280;64119;52.070;20.804;2024-03-23T03:17:32;99520.39;;;8.62;100.00
75536;BME280;64119;52.070;20.804;2024-03-23T03:19:59;99520.95;;;8.60;100.00
75536;BME280;64119;52.070;20.804;2024-03-23T03:22:27;99521.33;;;8.61;100.00
75536;BME280;64119;52.070;20.804;2024-03-23T03:24:54;99525.34;;;8.60;100.00
75536;BME280;64119;52.070;20.804;2024-03-23T03:27:22;99523.30;;;8.59;100.00
75536;BME280;64119;52.070;20.804;2024-03-23T03:29:50;99520.41;;;8.60;100.00
75536;BME280;64119;52.070;20.804;2024-03-23T03:32:17;99519.52;;;8.60;100.00
75536;BME280;64119;52.070;20.804;2024-03-23T03:34:45;99517.37;;;8.59;100.00
75536;BME280;64119;52.070;20.804;2024-03-23T03:37:13;99517.24;;;8.59;100.00
75536;BME280;64119;52.070;20.804;2024-03-23T03:39:40;99518.63;;;8.58;100.00
75536;BME280;64119;52.070;20.804;2024-03-23T03:42:07;99517.85;;;8.58;100.00
75536;BME280;64119;52.070;20.804;2024-03-23T03:44:35;99515.23;;;8.58;100.00
75536;BME280;64119;52.070;20.804;2024-03-23T03:47:04;99515.41;;;8.57;100.00
75536;BME280;64119;52.070;20.804;2024-03-23T03:49:32;99514.84;;;8.57;100.00
75536;BME280;64119;52.070;20.804;2024-03-23T03:52:00;99515.56;;;8.58;100.00
75536;BME280;64119;52.070;20.804;2024-03-23T03:54:29;99515.94;;;8.58;100.00
75536;BME280;64119;52.070;20.804;2024-03-23T03:56:56;99508.79;;;8.57;100.00
75536;BME280;64119;52.070;20.804;2024-03-23T03:59:24;99505.23;;;8.56;100.00
75536;BME280;64119;52.070;20.804;2024-03-23T04:01:51;99508.38;;;8.57;100.00
75536;BME280;64119;52.070;20.804;2024-03-23T04:04:19;99512.27;;;8.56;100.00
75536;BME280;64119;52.070;20.804;2024-03-23T04:06:48;99507.39;;;8.56;100.00
75536;BME280;64119;52.070;20.804;2024-03-23T04:09:15;99502.55;;;8.57;100.00
75536;BME280;64119;52.070;20.804;2024-03-23T04:11:43;99503.36;;;8.56;100.00
75536;BME280;64119;52.070;20.804;2024-03-23T04:14:10;99502.52;;;8.56;100.00
75536;BME280;64119;52.070;20.804;2024-03-23T04:16:38;99498.44;;;8.56;100.00
75536;BME280;64119;52.070;20.804;2024-03-23T04:19:05;99492.59;;;8.56;100.00
75536;BME280;64119;52.070;20.804;2024-03-23T04:21:33;99492.14;;;8.56;100.00
75536;BME280;64119;52.070;20.804;2024-03-23T04:24:01;99486.48;;;8.55;100.00
75536;BME280;64119;52.070;20.804;2024-03-23T04:26:29;99491.69;;;8.56;100.00
75536;BME280;64119;52.070;20.804;2024-03-23T04:28:56;99490.59;;;8.56;100.00
75536;BME280;64119;52.070;20.804;2024-03-23T04:31:24;99492.63;;;8.57;100.00
75536;BME280;64119;52.070;20.804;2024-03-23T04:33:51;99485.99;;;8.56;100.00
75536;BME280;64119;52.070;20.804;2024-03-23T04:36:19;99482.10;;;8.57;100.00
75536;BME280;64119;52.070;20.804;2024-03-23T04:38:46;99477.86;;;8.57;100.00
75536;BME280;64119;52.070;20.804;2024-03-23T04:41:17;99473.27;;;8.57;100.00
75536;BME280;64119;52.070;20.804;2024-03-23T04:43:44;99466.20;;;8.57;100.00
75536;BME280;64119;52.070;20.804;2024-03-23T04:46:12;99471.20;;;8.56;100.00
75536;BME280;64119;52.070;20.804;2024-03-23T04:48:39;99467.95;;;8.57;100.00
75536;BME280;64119;52.070;20.804;2024-03-23T04:51:07;99464.36;;;8.58;100.00
75536;BME280;64119;52.070;20.804;2024-03-23T04:53:35;99459.13;;;8.57;100.00
75536;BME280;64119;52.070;20.804;2024-03-23T04:56:02;99455.42;;;8.58;100.00
75536;BME280;64119;52.070;20.804;2024-03-23T04:58:31;99459.28;;;8.59;100.00
75536;BME280;64119;52.070;20.804;2024-03-23T05:00:59;99457.08;;;8.59;100.00
75536;BME280;64119;52.070;20.804;2024-03-23T05:03:26;99454.40;;;8.60;100.00
75536;BME280;64119;52.070;20.804;2024-03-23T05:05:54;99461.65;;;8.61;100.00
75536;BME280;64119;52.070;20.804;2024-03-23T05:08:21;99456.86;;;8.61;100.00
75536;BME280;64119;52.070;20.804;2024-03-23T05:10:49;99456.55;;;8.64;100.00
75536;BME280;64119;52.070;20.804;2024-03-23T05:13:17;99455.64;;;8.62;100.00
75536;BME280;64119;52.070;20.804;2024-03-23T05:15:52;99449.30;;;8.64;100.00
75536;BME280;64119;52.070;20.804;2024-03-23T05:18:19;99448.05;;;8.64;100.00
75536;BME280;64119;52.070;20.804;2024-03-23T05:20:48;99449.17;;;8.65;100.00
75536;BME280;64119;52.070;20.804;2024-03-23T05:23:15;99436.33;;;8.66;100.00
75536;BME280;64119;52.070;20.804;2024-03-23T05:25:43;99433.58;;;8.66;100.00
75536;BME280;64119;52.070;20.804;2024-03-23T05:28:10;99438.58;;;8.67;100.00
75536;BME280;64119;52.070;20.804;2024-03-23T05:30:39;99439.23;;;8.68;100.00
75536;BME280;64119;52.070;20.804;2024-03-23T05:33:07;99441.79;;;8.68;100.00
75536;BME280;64119;52.070;20.804;2024-03-23T05:35:35;99440.86;;;8.69;100.00
75536;BME280;64119;52.070;20.804;2024-03-23T05:38:02;99433.54;;;8.70;100.00
75536;BME280;64119;52.070;20.804;2024-03-23T05:40:30;99434.67;;;8.70;100.00
75536;BME280;64119;52.070;20.804;2024-03-23T05:42:59;99435.78;;;8.72;100.00
75536;BME280;64119;52.070;20.804;2024-03-23T05:45:26;99433.54;;;8.72;100.00
75536;BME280;64119;52.070;20.804;2024-03-23T05:47:54;99435.66;;;8.74;100.00
75536;BME280;64119;52.070;20.804;2024-03-23T05:50:21;99431.53;;;8.74;100.00
75536;BME280;64119;52.070;20.804;2024-03-23T05:52:50;99430.09;;;8.75;100.00
75536;BME280;64119;52.070;20.804;2024-03-23T05:55:17;99422.21;;;8.75;100.00
75536;BME280;64119;52.070;20.804;2024-03-23T05:57:45;99417.85;;;8.76;100.00
75536;BME280;64119;52.070;20.804;2024-03-23T06:00:13;99413.63;;;8.78;100.00
75536;BME280;64119;52.070;20.804;2024-03-23T06:02:43;99413.55;;;8.78;100.00
75536;BME280;64119;52.070;20.804;2024-03-23T06:05:13;99418.89;;;8.79;100.00
75536;BME280;64119;52.070;20.804;2024-03-23T06:07:41;99415.05;;;8.80;100.00
75536;BME280;64119;52.070;20.804;2024-03-23T06:10:08;99420.30;;;8.82;100.00
75536;BME280;64119;52.070;20.804;2024-03-23T06:12:37;99421.45;;;8.82;100.00
75536;BME280;64119;52.070;20.804;2024-03-23T06:15:07;99421.62;;;8.84;100.00
75536;BME280;64119;52.070;20.804;2024-03-23T06:17:41;99423.81;;;8.85;100.00
75536;BME280;64119;52.070;20.804;2024-03-23T06:20:09;99416.60;;;8.84;100.00
75536;BME280;64119;52.070;20.804;2024-03-23T06:22:37;99412.11;;;8.87;100.00
75536;BME280;64119;52.070;20.804;2024-03-23T06:25:05;99410.44;;;8.87;100.00
75536;BME280;64119;52.070;20.804;2024-03-23T06:27:33;99411.91;;;8.88;100.00
75536;BME280;64119;52.070;20.804;2024-03-23T06:30:01;99415.89;;;8.90;100.00
75536;BME280;64119;52.070;20.804;2024-03-23T06:32:29;99412.97;;;8.92;100.00
75536;BME280;64119;52.070;20.804;2024-03-23T06:34:56;99412.20;;;8.92;100.00
75536;BME280;64119;52.070;20.804;2024-03-23T06:37:24;99410.20;;;8.94;100.00
75536;BME280;64119;52.070;20.804;2024-03-23T06:39:52;99400.23;;;8.95;100.00
75536;BME280;64119;52.070;20.804;2024-03-23T06:42:19;99398.64;;;8.96;100.00
75536;BME280;64119;52.070;20.804;2024-03-23T06:44:47;99398.33;;;8.97;100.00
75536;BME280;64119;52.070;20.804;2024-03-23T06:47:14;99393.73;;;8.99;100.00
75536;BME280;64119;52.070;20.804;2024-03-23T06:49:42;99387.96;;;9.01;100.00
75536;BME280;64119;52.070;20.804;2024-03-23T06:52:09;99389.63;;;9.03;100.00
75536;BME280;64119;52.070;20.804;2024-03-23T06:54:37;99388.95;;;9.03;100.00
75536;BME280;64119;52.070;20.804;2024-03-23T06:57:04;99389.42;;;9.04;100.00
75536;BME280;64119;52.070;20.804;2024-03-23T06:59:32;99390.16;;;9.04;100.00
75536;BME280;64119;52.070;20.804;2024-03-23T07:02:00;99387.06;;;9.04;100.00
75536;BME280;64119;52.070;20.804;2024-03-23T07:04:27;99382.27;;;9.04;100.00
75536;BME280;64119;52.070;20.804;2024-03-23T07:06:55;99379.66;;;9.05;100.00
75536;BME280;64119;52.070;20.804;2024-03-23T07:09:23;99377.63;;;9.06;100.00
75536;BME280;64119;52.070;20.804;2024-03-23T07:11:58;99375.18;;;9.07;100.00
75536;BME280;64119;52.070;20.804;2024-03-23T07:14:26;99373.39;;;9.08;100.00
75536;BME280;64119;52.070;20.804;2024-03-23T07:16:53;99368.27;;;9.08;100.00
75536;BME280;64119;52.070;20.804;2024-03-23T07:19:21;99366.76;;;9.09;100.00
75536;BME280;64119;52.070;20.804;2024-03-23T07:21:48;99359.64;;;9.11;100.00
75536;BME280;64119;52.070;20.804;2024-03-23T07:24:16;99360.70;;;9.13;100.00
75536;BME280;64119;52.070;20.804;2024-03-23T07:26:43;99361.72;;;9.15;100.00
75536;BME280;64119;52.070;20.804;2024-03-23T07:29:12;99356.88;;;9.17;100.00
75536;BME280;64119;52.070;20.804;2024-03-23T07:31:40;99360.29;;;9.20;100.00
75536;BME280;64119;52.070;20.804;2024-03-23T07:34:08;99354.38;;;9.22;100.00
75536;BME280;64119;52.070;20.804;2024-03-23T07:36:36;99354.23;;;9.26;100.00
75536;BME280;64119;52.070;20.804;2024-03-23T07:39:03;99354.26;;;9.29;100.00
75536;BME280;64119;52.070;20.804;2024-03-23T07:41:33;99354.00;;;9.34;100.00
75536;BME280;64119;52.070;20.804;2024-03-23T07:44:02;99349.05;;;9.37;100.00
75536;BME280;64119;52.070;20.804;2024-03-23T07:46:30;99345.59;;;9.39;100.00
75536;BME280;64119;52.070;20.804;2024-03-23T07:48:58;99346.76;;;9.43;100.00
75536;BME280;64119;52.070;20.804;2024-03-23T07:51:25;99341.61;;;9.45;100.00
75536;BME280;64119;52.070;20.804;2024-03-23T07:53:53;99334.78;;;9.48;100.00
75536;BME280;64119;52.070;20.804;2024-03-23T07:56:20;99329.07;;;9.52;100.00
75536;BME280;64119;52.070;20.804;2024-03-23T07:58:50;99326.52;;;9.58;100.00
75536;BME280;64119;52.070;20.804;2024-03-23T08:01:18;99325.70;;;9.63;100.00
75536;BME280;64119;52.070;20.804;2024-03-23T08:03:45;99327.13;;;9.68;100.00
75536;BME280;64119;52.070;20.804;2024-03-23T08:06:17;99329.06;;;9.72;100.00
75536;BME280;64119;52.070;20.804;2024-03-23T08:08:49;99330.33;;;9.75;100.00
75536;BME280;64119;52.070;20.804;2024-03-23T08:11:18;99324.60;;;9.79;100.00
75536;BME280;64119;52.070;20.804;2024-03-23T08:13:45;99316.02;;;9.86;100.00
75536;BME280;64119;52.070;20.804;2024-03-23T08:16:13;99313.83;;;9.94;100.00
75536;BME280;64119;52.070;20.804;2024-03-23T08:18:41;99309.16;;;10.00;100.00
75536;BME280;64119;52.070;20.804;2024-03-23T08:21:09;99303.48;;;10.03;100.00
75536;BME280;64119;52.070;20.804;2024-03-23T08:23:37;99294.58;;;10.10;100.00
75536;BME280;64119;52.070;20.804;2024-03-23T08:26:13;99288.69;;;10.18;100.00
75536;BME280;64119;52.070;20.804;2024-03-23T08:28:40;99275.88;;;10.33;100.00
75536;BME280;64119;52.070;20.804;2024-03-23T08:31:09;99275.61;;;10.63;100.00
75536;BME280;64119;52.070;20.804;2024-03-23T08:33:38;99275.06;;;10.95;100.00
75536;BME280;64119;52.070;20.804;2024-03-23T08:36:07;99267.23;;;11.18;100.00
75536;BME280;64119;52.070;20.804;2024-03-23T08:38:35;99261.23;;;11.49;99.99
75536;BME280;64119;52.070;20.804;2024-03-23T08:41:09;99253.85;;;11.86;99.08
75536;BME280;64119;52.070;20.804;2024-03-23T08:43:38;99247.23;;;12.17;98.01
75536;BME280;64119;52.070;20.804;2024-03-23T08:46:13;99242.98;;;12.46;96.65
75536;BME280;64119;52.070;20.804;2024-03-23T08:48:43;99239.75;;;12.75;96.12
75536;BME280;64119;52.070;20.804;2024-03-23T08:51:13;99236.31;;;13.03;94.64
75536;BME280;64119;52.070;20.804;2024-03-23T08:53:41;99235.88;;;13.30;91.55
75536;BME280;64119;52.070;20.804;2024-03-23T08:56:10;99238.58;;;13.44;90.14
75536;BME280;64119;52.070;20.804;2024-03-23T08:58:38;99235.23;;;13.65;88.86
75536;BME280;64119;52.070;20.804;2024-03-23T09:01:08;99226.02;;;13.76;86.34
75536;BME280;64119;52.070;20.804;2024-03-23T09:03:37;99217.64;;;14.03;87.81
75536;BME280;64119;52.070;20.804;2024-03-23T09:06:14;99211.17;;;14.48;85.85
75536;BME280;64119;52.070;20.804;2024-03-23T09:08:42;99203.02;;;14.93;83.44
75536;BME280;64119;52.070;20.804;2024-03-23T09:11:11;99196.09;;;15.28;83.48
75536;BME280;64119;52.070;20.804;2024-03-23T09:13:39;99188.81;;;15.62;81.09
75536;BME280;64119;52.070;20.804;2024-03-23T09:16:07;99185.28;;;15.66;79.60
75536;BME280;64119;52.070;20.804;2024-03-23T09:18:38;99181.34;;;15.77;80.38
75536;BME280;64119;52.070;20.804;2024-03-23T09:21:12;99181.38;;;16.00;78.19
75536;BME280;64119;52.070;20.804;2024-03-23T09:23:43;99172.84;;;16.19;76.83
75536;BME280;64119;52.070;20.804;2024-03-23T09:26:11;99166.86;;;16.38;75.57
75536;BME280;64119;52.070;20.804;2024-03-23T09:28:39;99168.27;;;16.78;76.11
75536;BME280;64119;52.070;20.804;2024-03-23T09:31:07;99168.75;;;17.10;74.86
75536;BME280;64119;52.070;20.804;2024-03-23T09:33:35;99166.96;;;16.99;71.30
75536;BME280;64119;52.070;20.804;2024-03-23T09:36:04;99162.45;;;16.52;71.89
75536;BME280;64119;52.070;20.804;2024-03-23T09:38:32;99154.70;;;16.03;71.78
75536;BME280;64119;52.070;20.804;2024-03-23T09:40:59;99152.66;;;15.61;73.26
75536;BME280;64119;52.070;20.804;2024-03-23T09:43:27;99152.04;;;15.30;73.81
75536;BME280;64119;52.070;20.804;2024-03-23T09:45:54;99146.35;;;15.04;74.32
75536;BME280;64119;52.070;20.804;2024-03-23T09:48:22;99143.64;;;14.90;74.46
75536;BME280;64119;52.070;20.804;2024-03-23T09:50:50;99132.33;;;14.83;76.17
75536;BME280;64119;52.070;20.804;2024-03-23T09:53:17;99123.06;;;14.84;75.31
75536;BME280;64119;52.070;20.804;2024-03-23T09:55:45;99121.04;;;14.78;75.64
75536;BME280;64119;52.070;20.804;2024-03-23T09:58:16;99112.86;;;14.77;74.93
75536;BME280;64119;52.070;20.804;2024-03-23T10:00:45;99106.59;;;15.11;73.58
75536;BME280;64119;52.070;20.804;2024-03-23T10:03:12;99094.81;;;15.42;71.96
75536;BME280;64119;52.070;20.804;2024-03-23T10:05:40;99082.59;;;15.59;71.12
75536;BME280;64119;52.070;20.804;2024-03-23T10:10:43;99059.62;;;16.84;69.46
75536;BME280;64119;52.070;20.804;2024-03-23T10:13:11;99049.37;;;17.33;67.44
75536;BME280;64119;52.070;20.804;2024-03-23T10:15:59;99045.21;;;17.86;66.78
75536;BME280;64119;52.070;20.804;2024-03-23T10:18:26;99037.89;;;18.33;65.45
75536;BME280;64119;52.070;20.804;2024-03-23T10:23:36;99023.29;;;18.98;62.00
75536;BME280;64119;52.070;20.804;2024-03-23T10:26:21;99015.91;;;19.14;60.08
75536;BME280;64119;52.070;20.804;2024-03-23T10:28:58;99008.73;;;19.26;60.49
75536;BME280;64119;52.070;20.804;2024-03-23T10:31:30;98996.40;;;19.32;59.17
75536;BME280;64119;52.070;20.804;2024-03-23T10:33:59;98993.57;;;19.29;58.68
75536;BME280;64119;52.070;20.804;2024-03-23T10:36:28;98994.30;;;19.60;59.19
75536;BME280;64119;52.070;20.804;2024-03-23T10:38:57;98986.55;;;19.76;56.60
75536;BME280;64119;52.070;20.804;2024-03-23T10:41:31;98979.92;;;19.87;57.10
75536;BME280;64119;52.070;20.804;2024-03-23T10:44:01;98975.30;;;20.18;56.30
75536;BME280;64119;52.070;20.804;2024-03-23T10:46:30;98973.40;;;20.47;56.38
75536;BME280;64119;52.070;20.804;2024-03-23T10:48:58;98964.75;;;20.77;55.20
75536;BME280;64119;52.070;20.804;2024-03-23T10:51:26;98960.41;;;21.04;54.06
75536;BME280;64119;52.070;20.804;2024-03-23T10:53:55;98954.69;;;21.26;53.76
75536;BME280;64119;52.070;20.804;2024-03-23T10:56:23;98944.85;;;21.49;51.58
75536;BME280;64119;52.070;20.804;2024-03-23T10:58:55;98936.18;;;21.47;50.52
75536;BME280;64119;52.070;20.804;2024-03-23T11:01:22;98927.62;;;21.39;50.44
75536;BME280;64119;52.070;20.804;2024-03-23T11:03:51;98928.44;;;21.21;50.70
75536;BME280;64119;52.070;20.804;2024-03-23T11:06:35;98925.16;;;21.27;50.78
75536;BME280;64119;52.070;20.804;2024-03-23T11:09:03;98934.16;;;21.38;49.60
75536;BME280;64119;52.070;20.804;2024-03-23T11:11:30;98929.56;;;21.22;47.95
75536;BME280;64119;52.070;20.804;2024-03-23T11:13:59;98928.00;;;20.88;48.17
75536;BME280;64119;52.070;20.804;2024-03-23T11:16:28;98920.71;;;20.80;48.74
75536;BME280;64119;52.070;20.804;2024-03-23T11:19:35;98915.14;;;20.98;49.14
75536;BME280;64119;52.070;20.804;2024-03-23T11:22:05;98913.91;;;21.35;49.55
75536;BME280;64119;52.070;20.804;2024-03-23T11:24:33;98908.73;;;21.71;48.65
75536;BME280;64119;52.070;20.804;2024-03-23T11:27:01;98903.55;;;22.03;47.94
75536;BME280;64119;52.070;20.804;2024-03-23T11:29:31;98906.41;;;22.19;46.87
75536;BME280;64119;52.070;20.804;2024-03-23T11:31:58;98897.58;;;21.78;45.04
75536;BME280;64119;52.070;20.804;2024-03-23T11:34:28;98884.72;;;21.55;46.17
75536;BME280;64119;52.070;20.804;2024-03-23T11:37:04;98890.39;;;21.65;46.39
75536;BME280;64119;52.070;20.804;2024-03-23T11:39:32;98888.19;;;21.45;45.25
75536;BME280;64119;52.070;20.804;2024-03-23T11:42:00;98878.40;;;21.07;47.37
75536;BME280;64119;52.070;20.804;2024-03-23T11:44:28;98871.35;;;21.21;46.81
75536;BME280;64119;52.070;20.804;2024-03-23T11:47:07;98859.28;;;21.50;47.31
75536;BME280;64119;52.070;20.804;2024-03-23T11:49:36;98855.70;;;21.69;45.83
75536;BME280;64119;52.070;20.804;2024-03-23T11:52:08;98854.81;;;21.34;45.82
75536;BME280;64119;52.070;20.804;2024-03-23T11:54:35;98852.77;;;21.26;45.74
75536;BME280;64119;52.070;20.804;2024-03-23T11:57:07;98845.63;;;21.35;45.70
75536;BME280;64119;52.070;20.804;2024-03-23T11:59:37;98840.13;;;21.21;44.70
75536;BME280;64119;52.070;20.804;2024-03-23T12:02:09;98831.65;;;21.08;45.53
75536;BME280;64119;52.070;20.804;2024-03-23T12:04:38;98831.82;;;21.03;46.11
75536;BME280;64119;52.070;20.804;2024-03-23T12:07:11;98826.83;;;20.68;46.32
75536;BME280;64119;52.070;20.804;2024-03-23T12:09:39;98834.33;;;20.06;47.43
75536;BME280;64119;52.070;20.804;2024-03-23T12:12:25;98831.71;;;19.59;48.17
75536;BME280;64119;52.070;20.804;2024-03-23T12:15:07;98827.71;;;19.70;48.81
75536;BME280;64119;52.070;20.804;2024-03-23T12:17:35;98811.37;;;20.18;48.13
75536;BME280;64119;52.070;20.804;2024-03-23T12:20:03;98807.33;;;20.33;46.89
75536;BME280;64119;52.070;20.804;2024-03-23T12:22:31;98805.62;;;20.16;47.25
75536;BME280;64119;52.070;20.804;2024-03-23T12:24:59;98798.05;;;19.78;47.98
75536;BME280;64119;52.070;20.804;2024-03-23T12:27:27;98794.47;;;19.55;47.83
75536;BME280;64119;52.070;20.804;2024-03-23T12:29:54;98790.95;;;19.46;48.23
75536;BME280;64119;52.070;20.804;2024-03-23T12:32:22;98780.90;;;19.38;48.18
75536;BME280;64119;52.070;20.804;2024-03-23T12:34:49;98780.77;;;19.27;49.05
75536;BME280;64119;52.070;20.804;2024-03-23T12:37:16;98777.54;;;19.16;48.42
75536;BME280;64119;52.070;20.804;2024-03-23T12:39:47;98773.44;;;18.92;48.89
75536;BME280;64119;52.070;20.804;2024-03-23T12:42:14;98763.48;;;18.72;48.72
75536;BME280;64119;52.070;20.804;2024-03-23T12:44:42;98758.59;;;18.49;50.14
75536;BME280;64119;52.070;20.804;2024-03-23T12:47:10;98763.61;;;18.33;49.62
75536;BME280;64119;52.070;20.804;2024-03-23T12:49:38;98753.90;;;18.10;49.77
75536;BME280;64119;52.070;20.804;2024-03-23T12:52:05;98745.36;;;17.87;49.70
75536;BME280;64119;52.070;20.804;2024-03-23T12:54:35;98742.16;;;17.68;50.41
75536;BME280;64119;52.070;20.804;2024-03-23T12:57:02;98736.62;;;17.57;50.80
75536;BME280;64119;52.070;20.804;2024-03-23T12:59:30;98733.95;;;17.43;51.11
75536;BME280;64119;52.070;20.804;2024-03-23T13:01:58;98733.94;;;17.26;51.25
75536;BME280;64119;52.070;20.804;2024-03-23T13:04:25;98727.30;;;17.10;51.31
75536;BME280;64119;52.070;20.804;2024-03-23T13:06:53;98720.25;;;16.91;51.85
75536;BME280;64119;52.070;20.804;2024-03-23T13:09:20;98714.59;;;16.80;52.13
75536;BME280;64119;52.070;20.804;2024-03-23T13:11:48;98706.06;;;16.73;52.66
75536;BME280;64119;52.070;20.804;2024-03-23T13:14:15;98692.57;;;16.77;52.64
75536;BME280;64119;52.070;20.804;2024-03-23T13:16:45;98695.19;;;16.80;52.71
75536;BME280;64119;52.070;20.804;2024-03-23T13:19:12;98689.80;;;16.82;52.69
75536;BME280;64119;52.070;20.804;2024-03-23T13:21:40;98688.40;;;16.83;52.96
75536;BME280;64119;52.070;20.804;2024-03-23T13:24:08;98685.18;;;16.81;53.43
75536;BME280;64119;52.070;20.804;2024-03-23T13:26:35;98672.48;;;16.77;53.71
75536;BME280;64119;52.070;20.804;2024-03-23T13:29:03;98664.78;;;16.71;53.66
75536;BME280;64119;52.070;20.804;2024-03-23T13:31:31;98665.64;;;16.60;54.09
75536;BME280;64119;52.070;20.804;2024-03-23T13:33:58;98654.65;;;16.52;54.47
75536;BME280;64119;52.070;20.804;2024-03-23T13:36:26;98642.39;;;16.46;54.25
75536;BME280;64119;52.070;20.804;2024-03-23T13:38:53;98639.16;;;16.38;54.92
75536;BME280;64119;52.070;20.804;2024-03-23T13:41:21;98636.38;;;16.30;55.10
75536;BME280;64119;52.070;20.804;2024-03-23T13:43:49;98643.61;;;16.25;55.35
75536;BME280;64119;52.070;20.804;2024-03-23T13:46:16;98638.29;;;16.22;55.55
75536;BME280;64119;52.070;20.804;2024-03-23T13:48:44;98627.11;;;16.16;55.92
75536;BME280;64119;52.070;20.804;2024-03-23T13:51:11;98623.20;;;16.12;56.51
75536;BME280;64119;52.070;20.804;2024-03-23T13:53:40;98624.16;;;16.10;56.84
75536;BME280;64119;52.070;20.804;2024-03-23T13:56:08;98625.02;;;16.08;57.06